sensor_id;sensor_type;location;lat;lon;timestamp;P1;durP1;ratioP1;P2;durP2;ratioP2
3953;SDS011;1991;48.682;9.030;2022-11-11T00:01:00;7.77;;;4.87;;
3953;SDS011;1991;48.682;9.030;2022-11-11T00:03:37;8.23;;;5.17;;
3953;SDS011;1991;48.682;9.030;2022-11-11T00:06:04;9.07;;;4.77;;
3953;SDS011;1991;48.682;9.030;2022-11-11T02:10:18;4.33;;;3.10;;
3953;SDS011;1991;48.682;9.030;2022-11-11T02:12:47;3.33;;;2.80;;
3953;SDS011;1991;48.682;9.030;2022-11-11T02:15:31;6.27;;;3.40;;
3953;SDS011;1991;48.682;9.030;2022-11-11T02:17:57;7.30;;;3.67;;
3953;SDS011;1991;48.682;9.030;2022-11-11T02:20:24;4.60;;;3.00;;
3953;SDS011;1991;48.682;9.030;2022-11-11T02:25:29;5.20;;;3.20;;
3953;SDS011;1991;48.682;9.030;2022-11-11T02:27:57;3.90;;;3.13;;
3953;SDS011;1991;48.682;9.030;2022-11-11T02:30:27;4.33;;;3.00;;
3953;SDS011;1991;48.682;9.030;2022-11-11T02:32:53;5.13;;;3.23;;
3953;SDS011;1991;48.682;9.030;2022-11-11T02:35:20;6.30;;;2.83;;
3953;SDS011;1991;48.682;9.030;2022-11-11T02:37:54;4.87;;;3.17;;
3953;SDS011;1991;48.682;9.030;2022-11-11T02:40:28;5.53;;;3.27;;
3953;SDS011;1991;48.682;9.030;2022-11-11T02:43:03;5.97;;;3.53;;
3953;SDS011;1991;48.682;9.030;2022-11-11T02:45:29;5.13;;;3.40;;
3953;SDS011;1991;48.682;9.030;2022-11-11T02:47:55;6.77;;;3.27;;
3953;SDS011;1991;48.682;9.030;2022-11-11T02:50:21;10.00;;;3.43;;
3953;SDS011;1991;48.682;9.030;2022-11-11T02:52:46;4.40;;;2.70;;
3953;SDS011;1991;48.682;9.030;2022-11-11T02:55:13;5.13;;;2.97;;
3953;SDS011;1991;48.682;9.030;2022-11-11T02:57:38;6.97;;;3.07;;
3953;SDS011;1991;48.682;9.030;2022-11-11T03:00:04;5.33;;;3.40;;
3953;SDS011;1991;48.682;9.030;2022-11-11T03:02:31;4.37;;;3.37;;
3953;SDS011;1991;48.682;9.030;2022-11-11T03:04:56;5.70;;;2.97;;
3953;SDS011;1991;48.682;9.030;2022-11-11T03:07:22;5.67;;;3.40;;
3953;SDS011;1991;48.682;9.030;2022-11-11T03:09:49;6.20;;;3.63;;
3953;SDS011;1991;48.682;9.030;2022-11-11T03:12:15;5.70;;;3.13;;
3953;SDS011;1991;48.682;9.030;2022-11-11T03:14:41;4.03;;;2.73;;
3953;SDS011;1991;48.682;9.030;2022-11-11T03:17:07;6.67;;;3.33;;
3953;SDS011;1991;48.682;9.030;2022-11-11T03:19:58;5.57;;;3.20;;
3953;SDS011;1991;48.682;9.030;2022-11-11T03:22:43;4.67;;;2.47;;
3953;SDS011;1991;48.682;9.030;2022-11-11T03:25:08;4.03;;;2.80;;
3953;SDS011;1991;48.682;9.030;2022-11-11T03:27:53;4.07;;;3.10;;
3953;SDS011;1991;48.682;9.030;2022-11-11T03:30:18;4.77;;;3.50;;
3953;SDS011;1991;48.682;9.030;2022-11-11T03:32:44;6.03;;;3.40;;
3953;SDS011;1991;48.682;9.030;2022-11-11T03:35:09;6.27;;;4.23;;
3953;SDS011;1991;48.682;9.030;2022-11-11T03:37:35;6.20;;;3.80;;
3953;SDS011;1991;48.682;9.030;2022-11-11T03:40:19;4.80;;;3.50;;
3953;SDS011;1991;48.682;9.030;2022-11-11T03:42:44;5.93;;;3.70;;
3953;SDS011;1991;48.682;9.030;2022-11-11T03:45:10;6.47;;;3.60;;
3953;SDS011;1991;48.682;9.030;2022-11-11T03:47:35;6.03;;;4.37;;
3953;SDS011;1991;48.682;9.030;2022-11-11T03:50:01;10.40;;;4.17;;
3953;SDS011;1991;48.682;9.030;2022-11-11T03:52:26;5.30;;;3.90;;
3953;SDS011;1991;48.682;9.030;2022-11-11T03:54:52;6.40;;;3.60;;
3953;SDS011;1991;48.682;9.030;2022-11-11T03:57:17;8.57;;;3.83;;
3953;SDS011;1991;48.682;9.030;2022-11-11T03:59:55;5.50;;;3.63;;
3953;SDS011;1991;48.682;9.030;2022-11-11T04:02:20;6.43;;;3.33;;
3953;SDS011;1991;48.682;9.030;2022-11-11T04:05:05;6.60;;;3.63;;
3953;SDS011;1991;48.682;9.030;2022-11-11T04:07:49;5.90;;;3.60;;
3953;SDS011;1991;48.682;9.030;2022-11-11T04:10:34;6.47;;;3.70;;
3953;SDS011;1991;48.682;9.030;2022-11-11T04:13:00;7.83;;;4.33;;
3953;SDS011;1991;48.682;9.030;2022-11-11T04:15:45;7.10;;;3.60;;
3953;SDS011;1991;48.682;9.030;2022-11-11T04:18:29;7.17;;;3.80;;
3953;SDS011;1991;48.682;9.030;2022-11-11T04:21:13;6.10;;;3.73;;
3953;SDS011;1991;48.682;9.030;2022-11-11T04:23:57;5.80;;;3.70;;
3953;SDS011;1991;48.682;9.030;2022-11-11T04:26:23;4.80;;;3.57;;
3953;SDS011;1991;48.682;9.030;2022-11-11T04:28:48;7.27;;;3.73;;
3953;SDS011;1991;48.682;9.030;2022-11-11T04:31:32;5.93;;;3.40;;
3953;SDS011;1991;48.682;9.030;2022-11-11T04:33:58;4.63;;;3.70;;
3953;SDS011;1991;48.682;9.030;2022-11-11T04:36:23;5.13;;;3.60;;
3953;SDS011;1991;48.682;9.030;2022-11-11T04:38:49;5.13;;;3.70;;
3953;SDS011;1991;48.682;9.030;2022-11-11T04:41:33;6.63;;;3.70;;
3953;SDS011;1991;48.682;9.030;2022-11-11T04:43:59;4.70;;;3.90;;
3953;SDS011;1991;48.682;9.030;2022-11-11T04:46:43;9.07;;;4.00;;
3953;SDS011;1991;48.682;9.030;2022-11-11T04:49:08;7.47;;;3.50;;
3953;SDS011;1991;48.682;9.030;2022-11-11T04:51:34;6.63;;;4.00;;
3953;SDS011;1991;48.682;9.030;2022-11-11T04:54:18;5.37;;;3.70;;
3953;SDS011;1991;48.682;9.030;2022-11-11T04:56:44;6.43;;;3.40;;
3953;SDS011;1991;48.682;9.030;2022-11-11T04:59:13;6.10;;;3.37;;
3953;SDS011;1991;48.682;9.030;2022-11-11T05:01:40;4.90;;;3.60;;
3953;SDS011;1991;48.682;9.030;2022-11-11T05:04:24;5.10;;;3.30;;
3953;SDS011;1991;48.682;9.030;2022-11-11T05:06:49;6.07;;;3.50;;
3953;SDS011;1991;48.682;9.030;2022-11-11T05:09:33;6.63;;;4.47;;
3953;SDS011;1991;48.682;9.030;2022-11-11T05:11:59;5.67;;;4.00;;
3953;SDS011;1991;48.682;9.030;2022-11-11T05:14:24;6.57;;;3.70;;
3953;SDS011;1991;48.682;9.030;2022-11-11T05:17:09;7.00;;;3.47;;
3953;SDS011;1991;48.682;9.030;2022-11-11T05:19:53;5.60;;;3.80;;
3953;SDS011;1991;48.682;9.030;2022-11-11T05:22:38;5.93;;;4.47;;
3953;SDS011;1991;48.682;9.030;2022-11-11T05:25:05;8.20;;;4.93;;
3953;SDS011;1991;48.682;9.030;2022-11-11T05:27:50;6.17;;;4.13;;
3953;SDS011;1991;48.682;9.030;2022-11-11T05:30:17;5.20;;;3.93;;
3953;SDS011;1991;48.682;9.030;2022-11-11T05:32:43;6.53;;;3.97;;
3953;SDS011;1991;48.682;9.030;2022-11-11T05:35:09;6.37;;;4.37;;
3953;SDS011;1991;48.682;9.030;2022-11-11T05:37:36;6.67;;;4.13;;
3953;SDS011;1991;48.682;9.030;2022-11-11T05:40:02;6.73;;;4.63;;
3953;SDS011;1991;48.682;9.030;2022-11-11T05:42:28;6.77;;;4.60;;
3953;SDS011;1991;48.682;9.030;2022-11-11T05:44:54;7.93;;;4.60;;
3953;SDS011;1991;48.682;9.030;2022-11-11T05:47:20;6.13;;;4.30;;
3953;SDS011;1991;48.682;9.030;2022-11-11T05:49:45;6.13;;;4.73;;
3953;SDS011;1991;48.682;9.030;2022-11-11T05:52:11;6.57;;;4.60;;
3953;SDS011;1991;48.682;9.030;2022-11-11T05:54:38;8.50;;;5.43;;
3953;SDS011;1991;48.682;9.030;2022-11-11T05:57:04;6.70;;;4.93;;
3953;SDS011;1991;48.682;9.030;2022-11-11T05:59:29;6.70;;;4.43;;
3953;SDS011;1991;48.682;9.030;2022-11-11T06:01:55;6.47;;;4.37;;
3953;SDS011;1991;48.682;9.030;2022-11-11T06:04:21;7.40;;;4.83;;
3953;SDS011;1991;48.682;9.030;2022-11-11T06:06:47;5.70;;;4.23;;
3953;SDS011;1991;48.682;9.030;2022-11-11T06:09:12;6.47;;;4.10;;
3953;SDS011;1991;48.682;9.030;2022-11-11T06:11:38;6.77;;;4.20;;
3953;SDS011;1991;48.682;9.030;2022-11-11T06:14:04;5.60;;;3.97;;
3953;SDS011;1991;48.682;9.030;2022-11-11T06:16:30;5.00;;;4.03;;
3953;SDS011;1991;48.682;9.030;2022-11-11T06:18:55;7.40;;;3.90;;
3953;SDS011;1991;48.682;9.030;2022-11-11T06:21:21;5.23;;;3.73;;
3953;SDS011;1991;48.682;9.030;2022-11-11T06:23:47;11.60;;;7.40;;
3953;SDS011;1991;48.682;9.030;2022-11-11T06:26:12;8.03;;;5.53;;
3953;SDS011;1991;48.682;9.030;2022-11-11T06:28:40;6.97;;;5.07;;
3953;SDS011;1991;48.682;9.030;2022-11-11T06:31:08;8.63;;;5.07;;
3953;SDS011;1991;48.682;9.030;2022-11-11T06:33:35;8.73;;;4.87;;
3953;SDS011;1991;48.682;9.030;2022-11-11T06:36:01;7.63;;;4.53;;
3953;SDS011;1991;48.682;9.030;2022-11-11T06:38:28;11.57;;;4.93;;
3953;SDS011;1991;48.682;9.030;2022-11-11T06:40:53;7.57;;;4.50;;
3953;SDS011;1991;48.682;9.030;2022-11-11T06:43:19;5.60;;;4.67;;
3953;SDS011;1991;48.682;9.030;2022-11-11T06:45:45;7.10;;;4.67;;
3953;SDS011;1991;48.682;9.030;2022-11-11T06:48:15;7.87;;;4.47;;
3953;SDS011;1991;48.682;9.030;2022-11-11T06:50:40;6.87;;;4.87;;
3953;SDS011;1991;48.682;9.030;2022-11-11T06:53:10;9.23;;;5.37;;
3953;SDS011;1991;48.682;9.030;2022-11-11T06:55:40;6.63;;;4.60;;
3953;SDS011;1991;48.682;9.030;2022-11-11T06:58:06;5.90;;;4.50;;
3953;SDS011;1991;48.682;9.030;2022-11-11T07:00:37;8.30;;;5.00;;
3953;SDS011;1991;48.682;9.030;2022-11-11T07:03:04;6.83;;;4.60;;
3953;SDS011;1991;48.682;9.030;2022-11-11T07:05:31;9.20;;;5.17;;
3953;SDS011;1991;48.682;9.030;2022-11-11T07:08:00;5.47;;;4.70;;
3953;SDS011;1991;48.682;9.030;2022-11-11T07:10:27;7.50;;;4.90;;
3953;SDS011;1991;48.682;9.030;2022-11-11T07:12:52;6.00;;;4.67;;
3953;SDS011;1991;48.682;9.030;2022-11-11T07:15:18;5.27;;;4.37;;
3953;SDS011;1991;48.682;9.030;2022-11-11T07:17:43;6.67;;;4.80;;
3953;SDS011;1991;48.682;9.030;2022-11-11T07:20:09;6.90;;;4.77;;
3953;SDS011;1991;48.682;9.030;2022-11-11T07:22:35;7.07;;;4.80;;
3953;SDS011;1991;48.682;9.030;2022-11-11T07:25:01;7.90;;;4.70;;
3953;SDS011;1991;48.682;9.030;2022-11-11T07:27:27;10.27;;;5.43;;
3953;SDS011;1991;48.682;9.030;2022-11-11T07:29:52;6.80;;;5.17;;
3953;SDS011;1991;48.682;9.030;2022-11-11T07:32:18;6.70;;;5.00;;
3953;SDS011;1991;48.682;9.030;2022-11-11T07:34:43;11.17;;;5.63;;
3953;SDS011;1991;48.682;9.030;2022-11-11T07:37:09;8.67;;;5.53;;
3953;SDS011;1991;48.682;9.030;2022-11-11T07:39:35;9.90;;;5.40;;
3953;SDS011;1991;48.682;9.030;2022-11-11T07:42:00;15.43;;;5.13;;
3953;SDS011;1991;48.682;9.030;2022-11-11T07:44:26;7.57;;;5.37;;
3953;SDS011;1991;48.682;9.030;2022-11-11T07:46:52;7.03;;;5.53;;
3953;SDS011;1991;48.682;9.030;2022-11-11T07:49:17;7.43;;;5.47;;
3953;SDS011;1991;48.682;9.030;2022-11-11T07:51:43;5.23;;;4.30;;
3953;SDS011;1991;48.682;9.030;2022-11-11T07:54:08;7.23;;;4.73;;
3953;SDS011;1991;48.682;9.030;2022-11-11T07:56:34;7.33;;;4.87;;
3953;SDS011;1991;48.682;9.030;2022-11-11T07:59:00;5.90;;;4.70;;
3953;SDS011;1991;48.682;9.030;2022-11-11T08:01:25;6.33;;;4.73;;
3953;SDS011;1991;48.682;9.030;2022-11-11T08:03:51;6.00;;;4.50;;
3953;SDS011;1991;48.682;9.030;2022-11-11T08:06:20;6.67;;;4.80;;
3953;SDS011;1991;48.682;9.030;2022-11-11T08:08:47;6.90;;;4.90;;
3953;SDS011;1991;48.682;9.030;2022-11-11T08:11:13;5.83;;;4.60;;
3953;SDS011;1991;48.682;9.030;2022-11-11T08:13:40;9.70;;;4.80;;
3953;SDS011;1991;48.682;9.030;2022-11-11T08:16:07;7.33;;;4.00;;
3953;SDS011;1991;48.682;9.030;2022-11-11T08:18:38;7.83;;;4.47;;
3953;SDS011;1991;48.682;9.030;2022-11-11T08:21:05;8.43;;;4.77;;
3953;SDS011;1991;48.682;9.030;2022-11-11T08:23:31;6.17;;;3.57;;
3953;SDS011;1991;48.682;9.030;2022-11-11T08:26:00;6.20;;;3.00;;
3953;SDS011;1991;48.682;9.030;2022-11-11T08:28:28;3.23;;;2.93;;
3953;SDS011;1991;48.682;9.030;2022-11-11T08:30:57;6.80;;;3.20;;
3953;SDS011;1991;48.682;9.030;2022-11-11T08:33:25;6.13;;;3.43;;
3953;SDS011;1991;48.682;9.030;2022-11-11T08:35:51;4.27;;;3.43;;
3953;SDS011;1991;48.682;9.030;2022-11-11T08:38:22;4.90;;;3.20;;
3953;SDS011;1991;48.682;9.030;2022-11-11T08:40:49;6.60;;;2.87;;
3953;SDS011;1991;48.682;9.030;2022-11-11T08:43:15;5.40;;;3.30;;
3953;SDS011;1991;48.682;9.030;2022-11-11T08:45:41;7.63;;;2.80;;
3953;SDS011;1991;48.682;9.030;2022-11-11T08:48:07;6.13;;;2.70;;
3953;SDS011;1991;48.682;9.030;2022-11-11T08:50:39;6.47;;;2.77;;
3953;SDS011;1991;48.682;9.030;2022-11-11T08:53:08;3.90;;;2.70;;
3953;SDS011;1991;48.682;9.030;2022-11-11T08:55:35;4.40;;;2.87;;
3953;SDS011;1991;48.682;9.030;2022-11-11T08:58:03;3.87;;;2.50;;
3953;SDS011;1991;48.682;9.030;2022-11-11T09:00:30;3.22;;;2.33;;
3953;SDS011;1991;48.682;9.030;2022-11-11T09:03:03;2.63;;;2.07;;
3953;SDS011;1991;48.682;9.030;2022-11-11T09:05:30;3.97;;;2.33;;
3953;SDS011;1991;48.682;9.030;2022-11-11T09:07:59;2.83;;;2.00;;
3953;SDS011;1991;48.682;9.030;2022-11-11T09:10:25;2.90;;;2.17;;
3953;SDS011;1991;48.682;9.030;2022-11-11T09:12:55;2.47;;;2.00;;
3953;SDS011;1991;48.682;9.030;2022-11-11T09:15:21;2.92;;;2.10;;
3953;SDS011;1991;48.682;9.030;2022-11-11T09:17:48;3.95;;;2.30;;
3953;SDS011;1991;48.682;9.030;2022-11-11T09:20:13;4.18;;;2.08;;
3953;SDS011;1991;48.682;9.030;2022-11-11T09:22:42;3.17;;;1.60;;
3953;SDS011;1991;48.682;9.030;2022-11-11T09:25:11;3.38;;;1.75;;
3953;SDS011;1991;48.682;9.030;2022-11-11T09:27:38;3.42;;;2.25;;
3953;SDS011;1991;48.682;9.030;2022-11-11T09:30:04;4.75;;;2.13;;
3953;SDS011;1991;48.682;9.030;2022-11-11T09:32:30;4.00;;;2.20;;
3953;SDS011;1991;48.682;9.030;2022-11-11T09:34:56;4.15;;;1.98;;
3953;SDS011;1991;48.682;9.030;2022-11-11T09:37:22;2.83;;;1.83;;
3953;SDS011;1991;48.682;9.030;2022-11-11T09:39:48;2.42;;;1.42;;
3953;SDS011;1991;48.682;9.030;2022-11-11T09:42:16;3.08;;;1.50;;
3953;SDS011;1991;48.682;9.030;2022-11-11T09:45:04;4.28;;;1.50;;
3953;SDS011;1991;48.682;9.030;2022-11-11T09:50:10;6.38;;;1.88;;
3953;SDS011;1991;48.682;9.030;2022-11-11T09:52:42;3.05;;;1.85;;
3953;SDS011;1991;48.682;9.030;2022-11-11T09:55:39;4.57;;;1.42;;
3953;SDS011;1991;48.682;9.030;2022-11-11T10:00:56;2.25;;;1.10;;
3953;SDS011;1991;48.682;9.030;2022-11-11T10:03:26;1.42;;;1.10;;
3953;SDS011;1991;48.682;9.030;2022-11-11T10:08:45;1.88;;;1.15;;
3953;SDS011;1991;48.682;9.030;2022-11-11T10:11:20;1.58;;;1.17;;
3953;SDS011;1991;48.682;9.030;2022-11-11T10:13:53;3.63;;;1.40;;
3953;SDS011;1991;48.682;9.030;2022-11-11T10:16:27;2.35;;;1.20;;
3953;SDS011;1991;48.682;9.030;2022-11-11T10:24:16;4.13;;;1.27;;
3953;SDS011;1991;48.682;9.030;2022-11-11T10:26:50;7.20;;;1.58;;
3953;SDS011;1991;48.682;9.030;2022-11-11T10:29:17;3.30;;;1.67;;
3953;SDS011;1991;48.682;9.030;2022-11-11T10:31:44;3.53;;;1.35;;
3953;SDS011;1991;48.682;9.030;2022-11-11T10:34:16;1.63;;;1.10;;
3953;SDS011;1991;48.682;9.030;2022-11-11T10:36:53;3.75;;;1.35;;
3953;SDS011;1991;48.682;9.030;2022-11-11T10:39:24;2.85;;;1.20;;
3953;SDS011;1991;48.682;9.030;2022-11-11T10:41:57;2.33;;;1.27;;
3953;SDS011;1991;48.682;9.030;2022-11-11T10:44:27;2.33;;;1.23;;
3953;SDS011;1991;48.682;9.030;2022-11-11T10:50:12;2.83;;;1.15;;
3953;SDS011;1991;48.682;9.030;2022-11-11T10:55:44;3.13;;;1.42;;
3953;SDS011;1991;48.682;9.030;2022-11-11T11:00:52;1.70;;;0.98;;
3953;SDS011;1991;48.682;9.030;2022-11-11T11:03:31;2.80;;;0.90;;
3953;SDS011;1991;48.682;9.030;2022-11-11T11:06:43;1.38;;;0.88;;
3953;SDS011;1991;48.682;9.030;2022-11-11T11:08:57;3.28;;;0.90;;
3953;SDS011;1991;48.682;9.030;2022-11-11T11:11:35;3.80;;;0.90;;
3953;SDS011;1991;48.682;9.030;2022-11-11T11:14:07;3.47;;;1.10;;
3953;SDS011;1991;48.682;9.030;2022-11-11T11:16:42;1.48;;;1.02;;
3953;SDS011;1991;48.682;9.030;2022-11-11T11:22:17;2.10;;;0.90;;
3953;SDS011;1991;48.682;9.030;2022-11-11T11:24:36;2.03;;;1.00;;
3953;SDS011;1991;48.682;9.030;2022-11-11T11:27:03;2.92;;;1.13;;
3953;SDS011;1991;48.682;9.030;2022-11-11T11:29:41;1.50;;;0.80;;
3953;SDS011;1991;48.682;9.030;2022-11-11T11:32:18;2.15;;;0.95;;
3953;SDS011;1991;48.682;9.030;2022-11-11T11:37:16;3.92;;;1.02;;
3953;SDS011;1991;48.682;9.030;2022-11-11T11:39:43;2.92;;;0.82;;
3953;SDS011;1991;48.682;9.030;2022-11-11T11:42:55;3.70;;;0.75;;
3953;SDS011;1991;48.682;9.030;2022-11-11T11:50:38;3.20;;;1.40;;
3953;SDS011;1991;48.682;9.030;2022-11-11T12:01:12;1.90;;;0.88;;
3953;SDS011;1991;48.682;9.030;2022-11-11T12:09:36;2.13;;;0.80;;
3953;SDS011;1991;48.682;9.030;2022-11-11T12:14:55;2.90;;;1.10;;
3953;SDS011;1991;48.682;9.030;2022-11-11T12:20:26;3.28;;;1.20;;
3953;SDS011;1991;48.682;9.030;2022-11-11T12:23:12;1.60;;;0.90;;
3953;SDS011;1991;48.682;9.030;2022-11-11T12:25:51;2.53;;;1.05;;
3953;SDS011;1991;48.682;9.030;2022-11-11T12:40:12;2.22;;;1.20;;
3953;SDS011;1991;48.682;9.030;2022-11-11T12:45:46;7.25;;;1.33;;
3953;SDS011;1991;48.682;9.030;2022-11-11T12:51:10;3.00;;;1.35;;
3953;SDS011;1991;48.682;9.030;2022-11-11T12:53:51;3.53;;;1.50;;
3953;SDS011;1991;48.682;9.030;2022-11-11T12:56:43;5.45;;;1.80;;
3953;SDS011;1991;48.682;9.030;2022-11-11T13:04:48;2.47;;;1.10;;
3953;SDS011;1991;48.682;9.030;2022-11-11T13:15:31;1.13;;;0.52;;
3953;SDS011;1991;48.682;9.030;2022-11-11T13:17:58;2.00;;;0.70;;
3953;SDS011;1991;48.682;9.030;2022-11-11T13:20:38;2.00;;;1.05;;
3953;SDS011;1991;48.682;9.030;2022-11-11T13:23:08;2.65;;;0.93;;
3953;SDS011;1991;48.682;9.030;2022-11-11T13:25:35;4.15;;;0.90;;
3953;SDS011;1991;48.682;9.030;2022-11-11T13:33:26;2.78;;;1.08;;
3953;SDS011;1991;48.682;9.030;2022-11-11T13:36:06;4.18;;;1.10;;
3953;SDS011;1991;48.682;9.030;2022-11-11T13:41:23;1.67;;;0.75;;
3953;SDS011;1991;48.682;9.030;2022-11-11T13:43:56;2.97;;;1.00;;
3953;SDS011;1991;48.682;9.030;2022-11-11T13:48:56;4.70;;;0.95;;
3953;SDS011;1991;48.682;9.030;2022-11-11T13:54:06;4.07;;;1.33;;
3953;SDS011;1991;48.682;9.030;2022-11-11T13:56:46;2.58;;;0.90;;
3953;SDS011;1991;48.682;9.030;2022-11-11T13:59:23;1.50;;;0.77;;
3953;SDS011;1991;48.682;9.030;2022-11-11T14:10:06;1.88;;;0.80;;
3953;SDS011;1991;48.682;9.030;2022-11-11T14:12:33;4.22;;;0.65;;
3953;SDS011;1991;48.682;9.030;2022-11-11T14:15:01;4.30;;;0.80;;
3953;SDS011;1991;48.682;9.030;2022-11-11T14:17:31;1.60;;;0.77;;
3953;SDS011;1991;48.682;9.030;2022-11-11T14:19:58;2.85;;;1.30;;
3953;SDS011;1991;48.682;9.030;2022-11-11T14:22:30;2.35;;;1.00;;
3953;SDS011;1991;48.682;9.030;2022-11-11T14:25:17;4.43;;;1.30;;
3953;SDS011;1991;48.682;9.030;2022-11-11T14:27:46;2.08;;;1.20;;
3953;SDS011;1991;48.682;9.030;2022-11-11T14:30:28;1.88;;;1.20;;
3953;SDS011;1991;48.682;9.030;2022-11-11T14:33:37;1.77;;;1.00;;
3953;SDS011;1991;48.682;9.030;2022-11-11T14:36:23;2.17;;;1.30;;
3953;SDS011;1991;48.682;9.030;2022-11-11T14:41:54;5.63;;;1.27;;
3953;SDS011;1991;48.682;9.030;2022-11-11T14:52:25;3.17;;;1.60;;
3953;SDS011;1991;48.682;9.030;2022-11-11T14:57:47;4.40;;;1.67;;
3953;SDS011;1991;48.682;9.030;2022-11-11T15:00:16;4.43;;;1.27;;
3953;SDS011;1991;48.682;9.030;2022-11-11T15:02:50;3.38;;;1.02;;
3953;SDS011;1991;48.682;9.030;2022-11-11T15:22:01;4.20;;;1.23;;
3953;SDS011;1991;48.682;9.030;2022-11-11T15:24:43;1.52;;;1.05;;
3953;SDS011;1991;48.682;9.030;2022-11-11T15:28:13;2.97;;;1.02;;
3953;SDS011;1991;48.682;9.030;2022-11-11T15:30:22;2.65;;;0.90;;
3953;SDS011;1991;48.682;9.030;2022-11-11T15:35:55;3.10;;;1.40;;
3953;SDS011;1991;48.682;9.030;2022-11-11T15:38:28;1.65;;;1.10;;
3953;SDS011;1991;48.682;9.030;2022-11-11T15:40:56;5.82;;;1.40;;
3953;SDS011;1991;48.682;9.030;2022-11-11T15:43:24;1.88;;;1.20;;
3953;SDS011;1991;48.682;9.030;2022-11-11T15:45:52;2.13;;;1.15;;
3953;SDS011;1991;48.682;9.030;2022-11-11T15:48:25;1.80;;;1.35;;
3953;SDS011;1991;48.682;9.030;2022-11-11T15:50:54;1.08;;;0.90;;
3953;SDS011;1991;48.682;9.030;2022-11-11T15:53:24;5.05;;;1.58;;
3953;SDS011;1991;48.682;9.030;2022-11-11T15:55:54;2.33;;;1.60;;
3953;SDS011;1991;48.682;9.030;2022-11-11T16:00:54;2.83;;;1.60;;
3953;SDS011;1991;48.682;9.030;2022-11-11T16:03:32;4.47;;;1.90;;
3953;SDS011;1991;48.682;9.030;2022-11-11T16:06:05;4.03;;;1.50;;
3953;SDS011;1991;48.682;9.030;2022-11-11T16:08:33;5.95;;;1.88;;
3953;SDS011;1991;48.682;9.030;2022-11-11T16:10:59;7.18;;;1.70;;
3953;SDS011;1991;48.682;9.030;2022-11-11T16:13:39;7.28;;;2.95;;
3953;SDS011;1991;48.682;9.030;2022-11-11T16:16:12;11.63;;;4.20;;
3953;SDS011;1991;48.682;9.030;2022-11-11T16:18:55;10.23;;;6.07;;
3953;SDS011;1991;48.682;9.030;2022-11-11T16:21:29;11.60;;;6.07;;
3953;SDS011;1991;48.682;9.030;2022-11-11T16:24:01;9.10;;;6.18;;
3953;SDS011;1991;48.682;9.030;2022-11-11T16:26:27;14.40;;;7.18;;
3953;SDS011;1991;48.682;9.030;2022-11-11T16:28:57;9.98;;;6.95;;
3953;SDS011;1991;48.682;9.030;2022-11-11T16:31:35;14.88;;;7.28;;
3953;SDS011;1991;48.682;9.030;2022-11-11T16:37:00;5.85;;;5.20;;
3953;SDS011;1991;48.682;9.030;2022-11-11T16:39:32;6.72;;;4.55;;
3953;SDS011;1991;48.682;9.030;2022-11-11T16:42:02;10.40;;;3.78;;
3953;SDS011;1991;48.682;9.030;2022-11-11T16:50:02;4.57;;;3.33;;
3953;SDS011;1991;48.682;9.030;2022-11-11T16:52:37;4.68;;;3.25;;
3953;SDS011;1991;48.682;9.030;2022-11-11T16:55:07;5.70;;;3.28;;
3953;SDS011;1991;48.682;9.030;2022-11-11T16:57:35;10.23;;;3.10;;
3953;SDS011;1991;48.682;9.030;2022-11-11T17:00:07;9.00;;;3.05;;
3953;SDS011;1991;48.682;9.030;2022-11-11T17:02:37;6.43;;;3.90;;
3953;SDS011;1991;48.682;9.030;2022-11-11T17:05:03;10.13;;;7.82;;
3953;SDS011;1991;48.682;9.030;2022-11-11T17:07:30;5.57;;;4.90;;
3953;SDS011;1991;48.682;9.030;2022-11-11T17:10:19;7.03;;;3.80;;
3953;SDS011;1991;48.682;9.030;2022-11-11T17:12:49;4.03;;;3.60;;
3953;SDS011;1991;48.682;9.030;2022-11-11T17:15:16;5.97;;;3.60;;
3953;SDS011;1991;48.682;9.030;2022-11-11T17:17:44;7.28;;;4.10;;
3953;SDS011;1991;48.682;9.030;2022-11-11T17:22:52;7.25;;;3.60;;
3953;SDS011;1991;48.682;9.030;2022-11-11T17:25:19;8.50;;;3.22;;
3953;SDS011;1991;48.682;9.030;2022-11-11T17:27:45;8.02;;;2.80;;
3953;SDS011;1991;48.682;9.030;2022-11-11T17:30:11;4.13;;;3.40;;
3953;SDS011;1991;48.682;9.030;2022-11-11T17:32:37;7.40;;;3.67;;
3953;SDS011;1991;48.682;9.030;2022-11-11T17:35:03;5.80;;;3.43;;
3953;SDS011;1991;48.682;9.030;2022-11-11T17:37:32;10.50;;;4.27;;
3953;SDS011;1991;48.682;9.030;2022-11-11T17:40:03;8.33;;;4.43;;
3953;SDS011;1991;48.682;9.030;2022-11-11T17:42:30;9.90;;;5.53;;
3953;SDS011;1991;48.682;9.030;2022-11-11T17:44:56;9.73;;;6.57;;
3953;SDS011;1991;48.682;9.030;2022-11-11T17:47:21;11.00;;;7.70;;
3953;SDS011;1991;48.682;9.030;2022-11-11T17:49:47;14.37;;;8.03;;
3953;SDS011;1991;48.682;9.030;2022-11-11T17:52:13;11.97;;;7.53;;
3953;SDS011;1991;48.682;9.030;2022-11-11T17:54:39;11.47;;;7.07;;
3953;SDS011;1991;48.682;9.030;2022-11-11T17:57:05;13.10;;;7.50;;
3953;SDS011;1991;48.682;9.030;2022-11-11T17:59:31;9.00;;;6.20;;
3953;SDS011;1991;48.682;9.030;2022-11-11T18:01:56;12.47;;;7.03;;
3953;SDS011;1991;48.682;9.030;2022-11-11T18:04:23;14.33;;;7.67;;
3953;SDS011;1991;48.682;9.030;2022-11-11T18:06:48;15.07;;;8.83;;
3953;SDS011;1991;48.682;9.030;2022-11-11T18:09:14;10.03;;;7.00;;
3953;SDS011;1991;48.682;9.030;2022-11-11T18:11:39;11.53;;;6.53;;
3953;SDS011;1991;48.682;9.030;2022-11-11T18:14:05;13.17;;;6.43;;
3953;SDS011;1991;48.682;9.030;2022-11-11T18:16:31;12.30;;;7.50;;
3953;SDS011;1991;48.682;9.030;2022-11-11T18:18:56;12.60;;;7.03;;
3953;SDS011;1991;48.682;9.030;2022-11-11T18:21:25;14.20;;;7.73;;
3953;SDS011;1991;48.682;9.030;2022-11-11T18:23:52;14.27;;;8.27;;
3953;SDS011;1991;48.682;9.030;2022-11-11T18:26:19;14.27;;;9.10;;
3953;SDS011;1991;48.682;9.030;2022-11-11T18:28:45;15.57;;;11.23;;
3953;SDS011;1991;48.682;9.030;2022-11-11T18:31:11;16.57;;;11.20;;
3953;SDS011;1991;48.682;9.030;2022-11-11T18:33:38;16.10;;;11.20;;
3953;SDS011;1991;48.682;9.030;2022-11-11T18:36:15;13.53;;;9.00;;
3953;SDS011;1991;48.682;9.030;2022-11-11T18:38:43;10.73;;;8.70;;
3953;SDS011;1991;48.682;9.030;2022-11-11T18:41:13;10.30;;;7.77;;
3953;SDS011;1991;48.682;9.030;2022-11-11T18:43:41;9.83;;;6.70;;
3953;SDS011;1991;48.682;9.030;2022-11-11T18:46:09;11.87;;;9.37;;
3953;SDS011;1991;48.682;9.030;2022-11-11T18:48:37;13.00;;;9.90;;
3953;SDS011;1991;48.682;9.030;2022-11-11T18:51:04;12.60;;;9.20;;
3953;SDS011;1991;48.682;9.030;2022-11-11T18:53:31;11.80;;;8.60;;
3953;SDS011;1991;48.682;9.030;2022-11-11T18:56:01;13.13;;;7.33;;
3953;SDS011;1991;48.682;9.030;2022-11-11T18:58:32;8.73;;;6.23;;
3953;SDS011;1991;48.682;9.030;2022-11-11T19:01:09;7.60;;;6.00;;
3953;SDS011;1991;48.682;9.030;2022-11-11T19:03:37;9.37;;;5.27;;
3953;SDS011;1991;48.682;9.030;2022-11-11T19:06:08;6.93;;;4.93;;
3953;SDS011;1991;48.682;9.030;2022-11-11T19:08:35;6.80;;;4.43;;
3953;SDS011;1991;48.682;9.030;2022-11-11T19:11:01;7.87;;;4.97;;
3953;SDS011;1991;48.682;9.030;2022-11-11T19:13:29;6.37;;;4.83;;
3953;SDS011;1991;48.682;9.030;2022-11-11T19:15:55;9.03;;;4.60;;
3953;SDS011;1991;48.682;9.030;2022-11-11T19:18:21;7.10;;;4.80;;
3953;SDS011;1991;48.682;9.030;2022-11-11T19:20:46;9.47;;;5.73;;
3953;SDS011;1991;48.682;9.030;2022-11-11T19:23:12;8.97;;;5.67;;
3953;SDS011;1991;48.682;9.030;2022-11-11T19:25:38;8.60;;;5.60;;
3953;SDS011;1991;48.682;9.030;2022-11-11T19:28:03;7.93;;;6.00;;
3953;SDS011;1991;48.682;9.030;2022-11-11T19:30:31;8.27;;;5.20;;
3953;SDS011;1991;48.682;9.030;2022-11-11T19:32:57;9.20;;;5.67;;
3953;SDS011;1991;48.682;9.030;2022-11-11T19:35:23;7.80;;;5.40;;
3953;SDS011;1991;48.682;9.030;2022-11-11T19:37:49;8.23;;;5.93;;
3953;SDS011;1991;48.682;9.030;2022-11-11T19:40:14;8.37;;;5.40;;
3953;SDS011;1991;48.682;9.030;2022-11-11T19:42:40;8.83;;;5.73;;
3953;SDS011;1991;48.682;9.030;2022-11-11T19:45:06;9.07;;;5.63;;
3953;SDS011;1991;48.682;9.030;2022-11-11T19:47:32;7.03;;;5.43;;
3953;SDS011;1991;48.682;9.030;2022-11-11T19:49:57;8.07;;;5.50;;
3953;SDS011;1991;48.682;9.030;2022-11-11T19:52:23;11.30;;;5.67;;
3953;SDS011;1991;48.682;9.030;2022-11-11T19:54:48;12.37;;;6.30;;
3953;SDS011;1991;48.682;9.030;2022-11-11T19:57:14;8.47;;;5.67;;
3953;SDS011;1991;48.682;9.030;2022-11-11T19:59:39;6.93;;;5.80;;
3953;SDS011;1991;48.682;9.030;2022-11-11T20:02:05;8.40;;;5.60;;
3953;SDS011;1991;48.682;9.030;2022-11-11T20:04:31;9.53;;;5.77;;
3953;SDS011;1991;48.682;9.030;2022-11-11T20:06:57;9.53;;;5.73;;